Flight Briefing

Flight
SQS1024
Departure Arrival
Denpasar Ngurah Rai (Bali) (WADD)
Click to view NOTAMS
El Tari International (WATT)
Click to view NOTAMS
Departure Time Arrival Time
09:00 10:00
Aircraft Distance
PIAGGIO AVAN 511.385
Departure METAR Arrival METAR
WADD 180900Z 13016KT 9999 SCT017 28/25 Q1010 NOSIG
WATT 180800Z 11016KT 9999 FEW020 32/15 Q1010 NOSIG
Route
ANGS2A GOMAT W33 NR WAIP2C
Notes



Additional Data
View recent IFR Routes data



Data Courtesy of FlightAware